createdAt,value
2019-06-08T00:03:10.812Z,63.07
2019-06-08T00:08:29.590Z,61.88
2019-06-08T00:13:48.483Z,62.35
2019-06-08T00:19:07.162Z,61.56
2019-06-08T00:24:25.753Z,60.98
2019-06-08T00:29:44.690Z,59.48
2019-06-08T00:35:04.725Z,60.20
2019-06-08T00:40:23.104Z,59.85
2019-06-08T00:45:41.928Z,59.66
2019-06-08T00:51:00.652Z,59.74
2019-06-08T00:56:19.522Z,57.51
2019-06-08T01:01:38.218Z,57.61
2019-06-08T01:06:56.934Z,59.22
2019-06-08T01:12:15.601Z,59.49
2019-06-08T01:17:34.265Z,59.63
2019-06-08T01:22:52.846Z,60.13
2019-06-08T01:28:11.563Z,60.50
2019-06-08T01:33:30.876Z,58.36
2019-06-08T01:38:48.858Z,57.29
2019-06-08T01:44:06.645Z,57.84
2019-06-08T01:49:24.496Z,56.69
2019-06-08T01:54:43.162Z,56.78
2019-06-08T02:00:28.798Z,56.62
2019-06-08T02:05:21.205Z,56.03
2019-06-08T02:10:39.928Z,56.12
2019-06-08T02:15:58.991Z,55.89
2019-06-08T02:21:17.773Z,54.93
2019-06-08T02:26:36.509Z,55.70
2019-06-08T02:31:55.174Z,56.00
2019-06-08T02:37:14.258Z,55.86
2019-06-08T02:42:35.263Z,56.82
2019-06-08T02:47:53.739Z,56.28
2019-06-08T02:53:12.781Z,56.28
2019-06-08T02:58:36.072Z,56.74
2019-06-08T03:03:56.453Z,55.55
2019-06-08T03:09:16.815Z,56.61
2019-06-08T03:14:37.451Z,57.23
2019-06-08T03:19:56.012Z,56.89
2019-06-08T03:25:15.630Z,57.27
2019-06-08T03:30:37.958Z,57.32
2019-06-08T03:35:57.587Z,57.39
2019-06-08T03:41:15.432Z,58.10
2019-06-08T03:46:36.239Z,57.02
2019-06-08T03:51:54.965Z,58.05
2019-06-08T03:57:14.009Z,57.18
2019-06-08T04:02:32.687Z,57.23
2019-06-08T04:07:51.387Z,57.72
2019-06-08T04:13:11.725Z,58.34
2019-06-08T04:18:30.601Z,58.39
2019-06-08T04:23:50.665Z,57.68
2019-06-08T04:29:09.464Z,58.45
2019-06-08T04:34:28.390Z,56.98
2019-06-08T04:39:47.605Z,57.45
2019-06-08T04:45:08.545Z,57.94
2019-06-08T04:50:27.295Z,57.38
2019-06-08T04:55:47.111Z,57.32
2019-06-08T05:01:06.014Z,56.12
2019-06-08T05:06:24.675Z,57.56
2019-06-08T05:11:43.204Z,56.76
2019-06-08T05:17:02.004Z,57.15
2019-06-08T05:22:20.754Z,57.56
2019-06-08T05:27:41.126Z,57.54
2019-06-08T05:33:03.144Z,57.92
2019-06-08T05:38:22.090Z,57.56
2019-06-08T05:43:43.571Z,58.53
2019-06-08T05:49:02.295Z,56.66
2019-06-08T05:54:23.184Z,56.88
2019-06-08T05:59:42.087Z,57.34
2019-06-08T06:05:10.075Z,56.31
2019-06-08T06:10:31.787Z,57.03
2019-06-08T06:15:51.701Z,55.73
2019-06-08T06:21:12.272Z,56.87
2019-06-08T06:26:31.066Z,56.76
2019-06-08T06:31:49.817Z,55.04
2019-06-08T06:37:08.411Z,55.87
2019-06-08T06:42:27.826Z,56.42
2019-06-08T06:47:46.580Z,56.28
2019-06-08T06:53:05.468Z,56.69
2019-06-08T06:58:24.472Z,56.74
2019-06-08T07:03:44.194Z,56.92
2019-06-08T07:09:03.039Z,56.95
2019-06-08T07:14:21.663Z,57.72
2019-06-08T07:19:40.569Z,58.04
2019-06-08T07:24:59.633Z,58.53
2019-06-08T07:30:19.517Z,58.05
2019-06-08T07:35:38.192Z,56.55
2019-06-08T07:40:59.965Z,53.64
2019-06-08T07:46:17.937Z,53.90
2019-06-08T07:51:36.553Z,52.22
2019-06-08T07:56:55.288Z,53.60
2019-06-08T08:02:14.241Z,55.04
2019-06-08T08:07:33.236Z,53.90
2019-06-08T08:12:52.720Z,52.64
2019-06-08T08:18:11.510Z,52.64
2019-06-08T08:23:30.469Z,53.12
2019-06-08T08:28:51.778Z,53.12
2019-06-08T08:34:09.665Z,51.30
2019-06-08T08:39:28.350Z,50.01
2019-06-08T08:44:48.635Z,50.70
2019-06-08T08:50:08.321Z,50.15
2019-06-08T08:55:27.947Z,48.61
2019-06-08T09:00:48.720Z,50.78
2019-06-08T09:06:08.670Z,50.48
2019-06-08T09:11:28.926Z,49.42
2019-06-08T09:16:48.169Z,48.73
2019-06-08T09:22:08.519Z,47.40
2019-06-08T09:27:28.071Z,48.31
2019-06-08T09:32:47.824Z,48.45
2019-06-08T09:38:08.517Z,47.73
2019-06-08T09:43:25.488Z,49.35
2019-06-08T09:48:43.468Z,49.48
2019-06-08T09:54:04.755Z,49.76
2019-06-08T09:59:22.779Z,49.74
2019-06-08T10:04:41.395Z,49.79
2019-06-08T10:10:02.554Z,49.87
2019-06-08T10:15:20.639Z,53.09
2019-06-08T10:20:40.070Z,49.80
2019-06-08T10:26:01.328Z,49.98
2019-06-08T10:31:19.475Z,47.82
2019-06-08T10:36:38.305Z,47.82
2019-06-08T10:41:59.870Z,46.42
2019-06-08T10:47:17.641Z,48.70
2019-06-08T10:52:38.990Z,48.03
2019-06-08T10:58:00.091Z,46.49
2019-06-08T11:03:18.904Z,48.25
2019-06-08T11:08:39.014Z,47.54
2019-06-08T11:13:59.990Z,46.53
2019-06-08T11:19:18.276Z,46.68
2019-06-08T11:24:38.745Z,44.87
2019-06-08T11:29:57.736Z,45.41
2019-06-08T11:35:17.706Z,46.04
2019-06-08T11:40:37.787Z,43.93
2019-06-08T11:45:58.283Z,46.98
2019-06-08T11:51:16.377Z,47.78
2019-06-08T11:56:37.516Z,47.74
2019-06-08T12:01:55.764Z,48.26
2019-06-08T12:07:14.368Z,48.57
2019-06-08T12:12:32.957Z,49.42
2019-06-08T12:17:51.544Z,48.08
2019-06-08T12:23:10.463Z,46.60
2019-06-08T12:28:28.377Z,48.56
2019-06-08T12:33:48.776Z,44.87
2019-06-08T12:39:08.098Z,46.97
2019-06-08T12:44:29.051Z,44.51
2019-06-08T12:49:48.401Z,43.67
2019-06-08T12:55:14.470Z,43.36
2019-06-08T13:00:28.659Z,44.05
2019-06-08T13:05:46.743Z,43.44
2019-06-08T13:11:07.721Z,41.43
2019-06-08T13:16:28.235Z,41.88
2019-06-08T13:21:48.493Z,41.84
2019-06-08T13:27:06.986Z,41.01
2019-06-08T13:32:28.451Z,40.57
2019-06-08T13:37:47.460Z,42.59
2019-06-08T13:43:08.203Z,42.57
2019-06-08T13:48:26.717Z,42.78
2019-06-08T13:53:49.547Z,44.27
2019-06-08T13:59:08.015Z,41.91
2019-06-08T14:04:26.287Z,42.71
2019-06-08T14:09:44.390Z,41.89
2019-06-08T14:15:08.419Z,40.97
2019-06-08T14:20:32.564Z,42.92
2019-06-08T14:25:56.228Z,42.47
2019-06-08T14:31:10.815Z,43.31
2019-06-08T14:36:29.167Z,42.86
2019-06-08T14:41:49.450Z,41.45
2019-06-08T14:47:14.551Z,42.40
2019-06-08T14:52:33.357Z,43.81
2019-06-08T14:58:05.277Z,43.46
2019-06-08T15:03:25.223Z,44.02
2019-06-08T15:08:44.211Z,44.56
2019-06-08T15:14:03.038Z,44.96
2019-06-08T15:19:22.224Z,44.96
2019-06-08T15:24:40.912Z,45.90
2019-06-08T15:29:59.643Z,56.68
2019-06-08T15:35:18.538Z,59.03
2019-06-08T15:40:37.906Z,56.45
2019-06-08T15:45:59.139Z,52.84
2019-06-08T15:51:17.058Z,50.13
2019-06-08T15:56:48.171Z,50.16
2019-06-08T16:01:56.269Z,50.73
2019-06-08T16:07:16.258Z,51.91
2019-06-08T16:12:35.454Z,50.85
2019-06-08T16:17:54.168Z,53.92
2019-06-08T16:23:13.083Z,56.57
2019-06-08T16:28:32.079Z,60.33
2019-06-08T16:33:50.917Z,60.48
2019-06-08T16:39:09.602Z,60.53
2019-06-08T16:44:50.248Z,62.52
2019-06-08T16:50:23.269Z,62.52
2019-06-08T16:55:30.202Z,66.25
2019-06-08T17:00:49.147Z,66.51
2019-06-08T17:06:08.230Z,69.77
2019-06-08T17:11:27.713Z,67.41
2019-06-08T17:16:46.423Z,67.66
2019-06-08T17:22:05.171Z,68.78
2019-06-08T17:27:26.949Z,69.63
2019-06-08T17:32:44.704Z,69.79
2019-06-08T17:38:03.569Z,70.33
2019-06-08T17:43:22.530Z,70.09
2019-06-08T17:48:42.818Z,61.91
2019-06-08T17:54:02.037Z,54.44
2019-06-08T17:59:21.061Z,57.83
2019-06-08T18:04:41.123Z,55.01
2019-06-08T18:10:00.400Z,54.52
2019-06-08T18:15:19.593Z,56.58
2019-06-08T18:20:40.547Z,53.83
2019-06-08T18:25:58.992Z,49.42
2019-06-08T18:31:18.221Z,47.60
2019-06-08T18:36:40.379Z,47.87
2019-06-08T18:41:58.915Z,47.99
2019-06-08T18:47:18.187Z,50.52
2019-06-08T18:52:41.455Z,51.34
2019-06-08T18:57:57.477Z,50.46
2019-06-08T19:03:17.150Z,51.57
2019-06-08T19:08:39.203Z,55.97
2019-06-08T19:13:58.065Z,59.95
2019-06-08T19:19:16.915Z,62.48
2019-06-08T19:24:40.353Z,63.87
2019-06-08T19:29:57.773Z,63.87
2019-06-08T19:35:18.413Z,63.61
2019-06-08T19:40:39.157Z,61.95
2019-06-08T19:45:58.513Z,62.79
2019-06-08T19:51:17.410Z,65.32
2019-06-08T19:56:38.579Z,67.68
2019-06-08T20:01:59.630Z,72.21
2019-06-08T20:07:17.855Z,76.25
2019-06-08T20:12:37.367Z,77.43
2019-06-08T20:17:57.482Z,78.76
2019-06-08T20:23:18.117Z,80.41
2019-06-08T20:28:37.443Z,82.00
2019-06-08T20:33:57.644Z,83.56
2019-06-08T20:39:18.109Z,84.78
2019-06-08T20:44:38.247Z,84.98
2019-06-08T20:49:58.268Z,86.39
2019-06-08T20:55:17.665Z,86.65
2019-06-08T21:00:37.796Z,85.96
2019-06-08T21:05:58.202Z,85.24
2019-06-08T21:11:17.690Z,83.29
2019-06-08T21:16:38.310Z,83.20
2019-06-08T21:21:59.295Z,83.71
2019-06-08T21:27:17.908Z,85.22
2019-06-08T21:32:38.302Z,86.46
2019-06-08T21:38:01.030Z,86.69
2019-06-08T21:43:18.436Z,86.08
2019-06-08T21:48:38.207Z,86.43
2019-06-08T21:53:59.257Z,86.11
2019-06-08T21:59:18.253Z,85.83
2019-06-08T22:04:37.314Z,86.75
2019-06-08T22:09:58.796Z,86.33
2019-06-08T22:15:18.333Z,86.46
2019-06-08T22:20:38.318Z,85.46
2019-06-08T22:25:59.217Z,84.43
2019-06-08T22:31:18.273Z,84.83
2019-06-08T22:36:37.375Z,85.55
2019-06-08T22:41:58.519Z,85.55
2019-06-08T22:47:18.538Z,85.58
2019-06-08T22:52:37.807Z,86.20
2019-06-08T22:57:59.579Z,86.17
2019-06-08T23:03:18.475Z,86.29
2019-06-08T23:08:37.716Z,87.27
2019-06-08T23:13:59.566Z,88.14
2019-06-08T23:19:19.833Z,88.58
2019-06-08T23:24:42.675Z,88.78
2019-06-08T23:30:02.265Z,89.24
2019-06-08T23:35:22.498Z,89.21
2019-06-08T23:40:44.419Z,89.41
2019-06-08T23:46:04.022Z,89.10
2019-06-08T23:51:23.076Z,88.16
2019-06-08T23:56:42.101Z,87.88
